Time;durP1;ratioP1;P1;durP2;ratioP2;P2;SDS_P1;SDS_P2;PMS_P1;PMS_P2;Temp;Humidity;BMP_temperature;BMP_pressure;BME280_temperature;BME280_humidity;BME280_pressure;Samples;Min_cycle;Max_cycle;Signal;HPM_P1;HPM_P2
2022/03/17 00:01:52;;;;;;;14.15;5.43;;;;;;;;;;4969387;28;20080;-67
2022/03/17 00:04:21;;;;;;;13.00;7.05;;;;;;;;;;4969952;28;20035;-66
2022/03/17 00:06:47;;;;;;;7.80;6.00;;;10.10;99.90;;;;;;4972872;28;20488;-66
2022/03/17 00:09:13;;;;;;;11.05;5.93;;;;;;;;;;4973116;28;20077;-66
2022/03/17 00:11:40;;;;;;;16.27;7.07;;;;;;;;;;4973201;28;20788;-66
2022/03/17 00:14:06;;;;;;;8.27;5.55;;;;;;;;;;4972699;28;20118;-67
2022/03/17 00:16:32;;;;;;;10.98;5.03;;;;;;;;;;4973160;28;20710;-67
2022/03/17 00:18:58;;;;;;;12.98;5.55;;;;;;;;;;4972478;28;20034;-67
2022/03/17 00:21:24;;;;;;;11.65;5.72;;;9.90;99.90;;;;;;4973211;28;20022;-66
2022/03/17 00:23:50;;;;;;;10.57;6.00;;;;;;;;;;4972319;28;20416;-66
2022/03/17 00:26:17;;;;;;;16.92;8.38;;;;;;;;;;4956546;28;20022;-67
2022/03/17 00:28:43;;;;;;;16.92;5.97;;;;;;;;;;4973437;28;20034;-65
2022/03/17 00:31:09;;;;;;;9.02;5.28;;;;;;;;;;4972373;28;20393;-66
2022/03/17 00:33:35;;;;;;;13.85;7.03;;;;;;;;;;4972132;28;20034;-68
2022/03/17 00:36:01;;;;;;;15.35;5.80;;;;;;;;;;4972169;28;20062;-67
2022/03/17 00:38:27;;;;;;;29.10;8.20;;;9.80;99.90;;;;;;4972177;28;20109;-66
2022/03/17 00:40:53;;;;;;;8.68;4.35;;;;;;;;;;4972732;28;20585;-67
2022/03/17 00:43:24;;;;;;;8.57;4.95;;;;;;;;;;4972710;28;20094;-66
2022/03/17 00:45:50;;;;;;;18.85;9.55;;;;;;;;;;4972450;28;20102;-67
2022/03/17 00:48:16;;;;;;;12.32;6.38;;;;;;;;;;4971380;28;20059;-67
2022/03/17 00:50:42;;;;;;;9.30;4.60;;;;;;;;;;4971800;28;20061;-67
2022/03/17 00:53:08;;;;;;;12.90;5.68;;;;;;;;;;4971604;28;20035;-67
2022/03/17 00:55:35;;;;;;;8.23;4.25;;;;;;;;;;4972902;28;20177;-67
2022/03/17 00:58:01;;;;;;;9.38;3.47;;;;;;;;;;4971538;28;20039;-66
2022/03/17 01:00:27;;;;;;;20.77;6.10;;;;;;;;;;4971662;28;20519;-67
2022/03/17 01:02:54;;;;;;;9.55;4.35;;;;;;;;;;4972088;28;20127;-67
2022/03/17 01:05:21;;;;;;;14.90;4.25;;;;;;;;;;4971757;28;20062;-66
2022/03/17 01:07:47;;;;;;;6.38;3.78;;;;;;;;;;4972219;28;20498;-67
2022/03/17 01:10:18;;;;;;;12.88;5.05;;;;;;;;;;4971793;28;20038;-67
2022/03/17 01:12:46;;;;;;;9.95;4.93;;;;;;;;;;4971918;28;20031;-67
2022/03/17 01:15:12;;;;;;;10.60;5.13;;;;;;;;;;4971472;28;20113;-67
2022/03/17 01:17:38;;;;;;;12.63;5.75;;;;;;;;;;4971559;28;20031;-67
2022/03/17 01:20:05;;;;;;;16.77;6.88;;;;;;;;;;4970703;28;20564;-68
2022/03/17 01:22:31;;;;;;;14.52;5.38;;;;;;;;;;4972103;28;20034;-66
2022/03/17 01:24:57;;;;;;;23.27;6.43;;;;;;;;;;4971393;28;20093;-66
2022/03/17 01:27:23;;;;;;;11.65;6.07;;;;;;;;;;4971374;28;20030;-67
2022/03/17 01:29:50;;;;;;;12.20;6.05;;;9.70;99.90;;;;;;4970676;28;20042;-66
2022/03/17 01:32:17;;;;;;;9.82;4.68;;;;;;;;;;4971467;28;20085;-67
2022/03/17 01:34:43;;;;;;;11.30;6.63;;;;;;;;;;4971873;28;20114;-65
2022/03/17 01:37:09;;;;;;;16.00;5.22;;;9.80;99.90;;;;;;4970808;28;20039;-66
2022/03/17 01:39:35;;;;;;;11.93;6.03;;;;;;;;;;4970169;28;20027;-67
2022/03/17 01:42:03;;;;;;;17.65;6.68;;;;;;;;;;4970216;28;20045;-67
2022/03/17 01:44:29;;;;;;;9.88;5.25;;;9.60;99.90;;;;;;4971016;28;20492;-67
2022/03/17 01:49:40;;;;;;;14.57;6.88;;;;;;;;;;4971581;28;20046;-67
2022/03/17 01:52:06;;;;;;;13.02;5.82;;;;;;;;;;4970760;28;20104;-67
2022/03/17 01:54:33;;;;;;;12.88;5.07;;;;;;;;;;4970475;28;20400;-67
2022/03/17 01:56:59;;;;;;;15.80;6.70;;;;;;;;;;4970801;28;20031;-67
2022/03/17 01:59:26;;;;;;;18.05;6.85;;;;;;;;;;4970980;28;20418;-67
2022/03/17 02:01:53;;;;;;;12.82;6.15;;;;;;;;;;4970622;28;20085;-67
2022/03/17 02:04:20;;;;;;;9.63;5.28;;;;;;;;;;4971567;28;20030;-66
2022/03/17 02:06:46;;;;;;;11.85;5.63;;;;;;;;;;4970270;28;20089;-68
2022/03/17 02:09:12;;;;;;;14.13;5.97;;;;;;;;;;4970500;28;20100;-66
2022/03/17 02:14:24;;;;;;;9.55;5.60;;;;;;;;;;4955797;28;20133;-68
2022/03/17 02:16:50;;;;;;;16.08;7.28;;;;;;;;;;4971599;28;20030;-67
2022/03/17 02:19:17;;;;;;;15.50;6.70;;;9.50;99.90;;;;;;4970338;28;20062;-66
2022/03/17 02:21:44;;;;;;;12.52;6.60;;;9.40;99.90;;;;;;4960772;28;20440;-66
2022/03/17 02:26:57;;;;;;;15.55;5.68;;;;;;;;;;4969704;28;20417;-67
2022/03/17 02:29:23;;;;;;;24.73;8.60;;;;;;;;;;4970178;28;20027;-67
2022/03/17 02:31:48;;;;;;;19.30;6.10;;;9.70;99.90;;;;;;4970799;28;20038;-66
2022/03/17 02:34:17;;;;;;;10.25;5.20;;;;;;;;;;4969884;28;20035;-67
2022/03/17 02:36:48;;;;;;;20.35;7.82;;;;;;;;;;4970542;28;20037;-66
2022/03/17 02:39:14;;;;;;;15.43;6.15;;;9.40;99.90;;;;;;4969959;28;20150;-66
2022/03/17 02:41:40;;;;;;;9.77;5.33;;;;;;;;;;4970033;28;20134;-68
2022/03/17 02:44:06;;;;;;;16.75;5.18;;;;;;;;;;4969109;28;20114;-68
2022/03/17 02:46:32;;;;;;;9.45;4.25;;;;;;;;;;4970898;28;20340;-67
2022/03/17 02:48:58;;;;;;;10.25;6.60;;;;;;;;;;4968976;28;20031;-67
2022/03/17 02:51:24;;;;;;;18.38;6.95;;;;;;;;;;4969728;28;20053;-68
2022/03/17 02:53:50;;;;;;;13.48;5.90;;;;;;;;;;4969452;28;20073;-67
2022/03/17 02:56:16;;;;;;;11.90;5.30;;;;;;;;;;4969655;28;20027;-66
2022/03/17 02:58:43;;;;;;;14.07;6.03;;;;;;;;;;4970461;28;20045;-67
2022/03/17 03:01:09;;;;;;;14.32;6.28;;;9.20;99.90;;;;;;4969598;28;20073;-68
2022/03/17 03:03:35;;;;;;;18.27;6.53;;;;;;;;;;4968646;28;20416;-66
2022/03/17 03:06:01;;;;;;;11.90;5.07;;;;;;;;;;4969842;28;20066;-66
2022/03/17 03:08:27;;;;;;;12.70;7.10;;;9.40;99.90;;;;;;4969632;28;20026;-68
2022/03/17 03:10:53;;;;;;;12.13;7.50;;;;;;;;;;4970404;28;20102;-68
2022/03/17 03:13:19;;;;;;;9.25;5.32;;;;;;;;;;4970145;28;20472;-66
2022/03/17 03:15:45;;;;;;;12.77;6.65;;;;;;;;;;4969418;28;20057;-67
2022/03/17 03:18:12;;;;;;;16.00;5.22;;;;;;;;;;4969515;28;20472;-68
2022/03/17 03:20:39;;;;;;;;;;;;;;;;;;4970005;28;20047;-66
2022/03/17 03:23:05;;;;;;;15.32;5.97;;;;;;;;;;4969239;28;19969;-69
2022/03/17 03:25:31;;;;;;;14.65;6.53;;;;;;;;;;4969580;28;20117;-68
2022/03/17 03:27:56;;;;;;;15.05;5.95;;;9.40;99.90;;;;;;4969615;28;20038;-67
2022/03/17 03:30:23;;;;;;;15.77;5.97;;;;;;;;;;4969157;28;20554;-68
2022/03/17 03:32:49;;;;;;;13.88;5.95;;;9.30;99.90;;;;;;4969296;28;20026;-68
2022/03/17 03:38:00;;;;;;;10.10;4.82;;;;;;;;;;4969601;28;20090;-67
2022/03/17 03:40:26;;;;;;;11.05;4.95;;;9.30;99.90;;;;;;4969668;28;20015;-67
2022/03/17 03:42:52;;;;;;;12.90;5.63;;;;;;;;;;4968424;28;20030;-69
2022/03/17 03:45:19;;;;;;;12.52;5.32;;;;;;;;;;4968207;28;20096;-69
2022/03/17 03:47:45;;;;;;;13.35;6.22;;;;;;;;;;4968751;28;20085;-69
2022/03/17 03:50:11;;;;;;;11.60;4.18;;;;;;;;;;4968811;28;20030;-67
2022/03/17 03:52:37;;;;;;;13.98;4.35;;;9.20;99.90;;;;;;4969799;28;20054;-68
2022/03/17 03:55:03;;;;;;;18.48;5.50;;;;;;;;;;4968415;28;20035;-68
2022/03/17 03:57:28;;;;;;;5.45;3.90;;;9.20;99.90;;;;;;4968378;28;20057;-68
2022/03/17 03:59:54;;;;;;;14.13;5.55;;;9.20;99.90;;;;;;4968701;28;20035;-69
2022/03/17 04:02:20;;;;;;;22.27;5.55;;;;;;;;;;4968742;28;20081;-67
2022/03/17 04:04:46;;;;;;;6.00;3.15;;;;;;;;;;4969659;28;20099;-69
2022/03/17 04:07:12;;;;;;;4.85;3.55;;;9.40;99.90;;;;;;4968412;28;20042;-68
2022/03/17 04:09:39;;;;;;;7.38;4.45;;;;;;;;;;4968814;28;20019;-68
2022/03/17 04:12:07;;;;;;;7.90;3.83;;;9.10;99.90;;;;;;4968737;28;20069;-69
2022/03/17 04:14:33;;;;;;;9.40;3.42;;;;;;;;;;4968610;28;20034;-67
2022/03/17 04:16:59;;;;;;;30.42;5.55;;;;;;;;;;4968271;28;20029;-67
2022/03/17 04:19:26;;;;;;;7.75;4.13;;;;;;;;;;4969484;28;20137;-69
2022/03/17 04:21:52;;;;;;;7.95;4.68;;;;;;;;;;4968540;28;20388;-69
2022/03/17 04:24:18;;;;;;;8.70;4.38;;;;;;;;;;4968912;28;20057;-68
2022/03/17 04:26:45;;;;;;;17.45;4.88;;;;;;;;;;4967317;28;20098;-68
2022/03/17 04:29:12;;;;;;;12.03;3.87;;;;;;;;;;4968524;28;20561;-69
2022/03/17 04:31:38;;;;;;;19.60;4.18;;;;;;;;;;4969393;28;20782;-67
2022/03/17 04:34:05;;;;;;;12.05;5.60;;;;;;;;;;4968421;28;20043;-68
2022/03/17 04:36:31;;;;;;;12.75;4.45;;;;;;;;;;4968604;28;20038;-68
2022/03/17 04:38:58;;;;;;;8.35;5.13;;;9.10;99.90;;;;;;4968423;28;20506;-69
2022/03/17 04:41:24;;;;;;;8.13;4.45;;;;;;;;;;4968686;28;20527;-68
2022/03/17 04:43:50;;;;;;;7.47;4.53;;;;;;;;;;4968718;28;20531;-68
2022/03/17 04:46:16;;;;;;;5.53;3.50;;;;;;;;;;4969069;28;20023;-67
2022/03/17 04:48:43;;;;;;;9.98;3.80;;;;;;;;;;4967924;28;20030;-69
2022/03/17 04:51:09;;;;;;;7.80;5.05;;;7.10;99.90;;;;;;4970606;28;20639;-68
2022/03/17 04:53:35;;;;;;;8.10;5.15;;;;;;;;;;4972280;28;20074;-68
2022/03/17 04:56:05;;;;;;;8.77;3.42;;;;;;;;;;4972778;28;20074;-68
2022/03/17 04:58:33;;;;;;;7.57;4.45;;;;;;;;;;4970647;28;20038;-68
2022/03/17 05:01:00;;;;;;;14.45;5.05;;;;;;;;;;4972108;28;20055;-68
2022/03/17 05:03:26;;;;;;;13.20;5.38;;;;;;;;;;4971722;28;20546;-68
2022/03/17 05:05:52;;;;;;;6.32;4.47;;;;;;;;;;4972007;28;20483;-68
2022/03/17 05:08:18;;;;;;;10.13;3.92;;;9.50;99.90;;;;;;4971846;28;20530;-68
2022/03/17 05:10:47;;;;;;;18.33;3.97;;;;;;;;;;4972307;28;20114;-68
2022/03/17 05:13:13;;;;;;;18.00;5.25;;;;;;;;;;4971606;28;20407;-68
2022/03/17 05:15:39;;;;;;;9.02;5.22;;;;;;;;;;4971551;28;20058;-67
2022/03/17 05:18:06;;;;;;;14.38;4.93;;;;;;;;;;4972503;28;20412;-68
2022/03/17 05:20:33;;;;;;;12.52;3.72;;;;;;;;;;4971614;28;20035;-68
2022/03/17 05:22:59;;;;;;;9.75;3.65;;;;;;;;;;4972604;28;20090;-68
2022/03/17 05:25:25;;;;;;;6.70;4.18;;;;;;;;;;4972156;28;20455;-68
2022/03/17 05:27:51;;;;;;;19.88;5.13;;;;;;;;;;4971738;28;20420;-68
2022/03/17 05:30:19;;;;;;;11.20;4.50;;;;;;;;;;4970642;28;20802;-68
2022/03/17 05:32:45;;;;;;;;;;;;;;;;;;4972006;28;20066;-69
2022/03/17 05:35:11;;;;;;;9.82;4.93;;;9.30;99.90;;;;;;4971167;28;19914;-68
2022/03/17 05:37:38;;;;;;;12.85;5.05;;;;;;;;;;4972781;28;20034;-68
2022/03/17 05:40:06;;;;;;;11.40;4.93;;;9.20;99.90;;;;;;4971347;28;20543;-69
2022/03/17 05:42:33;;;;;;;9.32;5.43;;;;;;;;;;4970793;28;20811;-68
2022/03/17 05:44:58;;;;;;;11.05;4.88;;;9.40;99.90;;;;;;4971433;28;20058;-68
2022/03/17 05:47:24;;;;;;;11.63;6.43;;;;;;;;;;4971652;28;20026;-68
2022/03/17 05:49:51;;;;;;;7.63;4.75;;;;;;;;;;4971254;28;20029;-68
2022/03/17 05:52:16;;;;;;;9.70;5.32;;;9.20;99.90;;;;;;4970843;28;20134;-67
2022/03/17 05:54:44;;;;;;;11.30;5.13;;;;;;;;;;4967745;28;20500;-68
2022/03/17 05:57:10;;;;;;;20.33;5.50;;;;;;;;;;4970810;28;20039;-68
2022/03/17 05:59:39;;;;;;;4.20;3.55;;;;;;;;;;4970176;28;20410;-67
2022/03/17 06:02:05;;;;;;;8.88;4.25;;;;;;;;;;4968484;28;20066;-67
2022/03/17 06:04:31;;;;;;;9.13;4.15;;;;;;;;;;4970593;28;20062;-68
2022/03/17 06:06:57;;;;;;;13.18;3.72;;;;;;;;;;4968644;28;20069;-70
2022/03/17 06:09:23;;;;;;;13.82;5.45;;;;;;;;;;4965612;28;20041;-68
2022/03/17 06:11:50;;;;;;;8.88;3.97;;;;;;;;;;4967456;28;20031;-68
2022/03/17 06:14:16;;;;;;;7.88;4.43;;;;;;;;;;4967414;28;20569;-68
2022/03/17 06:16:43;;;;;;;11.50;6.00;;;;;;;;;;4967762;28;20035;-66
2022/03/17 06:19:09;;;;;;;5.50;4.03;;;;;;;;;;4967016;28;20121;-69
2022/03/17 06:21:35;;;;;;;11.25;4.75;;;;;;;;;;4968236;28;20105;-68
2022/03/17 06:24:01;;;;;;;9.55;4.53;;;;;;;;;;4966836;28;20046;-68
2022/03/17 06:26:27;;;;;;;8.43;5.75;;;;;;;;;;4964764;28;20051;-71
2022/03/17 06:28:53;;;;;;;13.85;5.05;;;;;;;;;;4968329;28;20411;-71
2022/03/17 06:31:19;;;;;;;10.23;5.05;;;;;;;;;;4965474;28;20029;-73
2022/03/17 06:33:45;;;;;;;9.65;3.50;;;;;;;;;;4967964;28;20122;-69
2022/03/17 06:36:13;;;;;;;13.68;5.07;;;;;;;;;;4966199;28;20746;-71
2022/03/17 06:38:39;;;;;;;9.30;3.72;;;;;;;;;;4967492;28;20129;-72
2022/03/17 06:41:05;;;;;;;10.40;4.70;;;;;;;;;;4965164;28;20109;-73
2022/03/17 06:43:31;;;;;;;8.70;4.97;;;;;;;;;;4966363;28;20035;-71
2022/03/17 06:45:56;;;;;;;9.23;3.75;;;9.50;99.90;;;;;;4967881;28;20031;-70
2022/03/17 06:48:22;;;;;;;5.82;3.97;;;;;;;;;;4968218;28;20031;-70
2022/03/17 06:50:48;;;;;;;11.15;5.30;;;;;;;;;;4942230;28;20049;-69
2022/03/17 06:53:14;;;;;;;8.65;4.03;;;;;;;;;;4965343;28;20500;-68
2022/03/17 06:55:40;;;;;;;13.07;6.10;;;;;;;;;;4965504;28;20670;-68
2022/03/17 06:58:06;;;;;;;8.07;4.57;;;;;;;;;;4947966;28;20070;-70
2022/03/17 07:00:32;;;;;;;17.20;4.60;;;;;;;;;;4957316;28;20111;-69
2022/03/17 07:02:58;;;;;;;10.82;6.30;;;;;;;;;;4951548;28;20031;-68
2022/03/17 07:05:24;;;;;;;14.13;5.63;;;;;;;;;;4960615;28;20030;-69
2022/03/17 07:07:50;;;;;;;11.65;5.28;;;;;;;;;;4962760;28;20023;-68
2022/03/17 07:10:16;;;;;;;15.23;6.30;;;9.90;99.90;;;;;;4943375;29;20563;-68
2022/03/17 07:12:43;;;;;;;7.03;5.28;;;;;;;;;;4961995;28;20042;-68
2022/03/17 07:15:09;;;;;;;9.57;5.03;;;;;;;;;;4959291;28;20043;-68
2022/03/17 07:17:42;;;;;;;10.70;6.70;;;;;;;;;;4955904;28;20668;-67
2022/03/17 07:20:12;;;;;;;14.50;8.05;;;10.30;99.90;;;;;;4965519;28;20027;-69
2022/03/17 07:22:42;;;;;;;28.75;10.88;;;;;;;;;;4958046;28;20055;-71
2022/03/17 07:25:09;;;;;;;31.63;9.82;;;;;;;;;;4969813;28;20042;-71
2022/03/17 07:27:46;;;;;;;21.17;11.45;;;;;;;;;;4970483;28;20035;-71
2022/03/17 07:30:23;;;;;;;19.42;8.43;;;10.60;99.90;;;;;;4973689;28;20092;-68
2022/03/17 07:32:52;;;;;;;20.65;8.23;;;;;;;;;;4979922;28;20043;-69
2022/03/17 07:35:18;;;;;;;14.70;8.75;;;;;;;;;;4979912;28;20049;-69
2022/03/17 07:37:44;;;;;;;12.25;7.38;;;;;;;;;;4969706;28;20042;-68
2022/03/17 07:40:10;;;;;;;18.38;8.43;;;;;;;;;;4970383;28;20026;-69
2022/03/17 07:42:36;;;;;;;15.13;8.13;;;;;;;;;;4975760;28;20034;-69
2022/03/17 07:45:02;;;;;;;10.90;5.57;;;;;;;;;;4969429;28;20035;-68
2022/03/17 07:47:28;;;;;;;14.75;6.53;;;;;;;;;;4970136;28;20035;-68
2022/03/17 07:49:54;;;;;;;13.10;6.85;;;;;;;;;;4968907;28;20038;-72
2022/03/17 07:52:21;;;;;;;23.30;7.53;;;;;;;;;;4980087;28;20050;-69
2022/03/17 07:54:47;;;;;;;14.98;6.45;;;;;;;;;;4969933;28;20041;-69
2022/03/17 07:57:13;;;;;;;22.45;5.80;;;;;;;;;;4976512;28;20030;-69
2022/03/17 07:59:39;;;;;;;15.38;7.45;;;;;;;;;;4984657;28;20031;-69
2022/03/17 08:02:05;;;;;;;12.98;6.18;;;;;;;;;;4975537;28;20564;-70
2022/03/17 08:04:32;;;;;;;14.80;5.68;;;;;;;;;;4969256;28;20081;-69
2022/03/17 08:07:00;;;;;;;15.90;5.75;;;;;;;;;;4979043;28;20114;-69
2022/03/17 08:09:26;;;;;;;9.95;6.07;;;;;;;;;;4977833;28;20109;-69
2022/03/17 08:11:52;;;;;;;17.73;6.93;;;;;;;;;;4979519;28;20027;-68
2022/03/17 08:14:19;;;;;;;25.63;7.40;;;;;;;;;;4969492;28;20033;-70
2022/03/17 08:16:45;;;;;;;14.50;8.75;;;;;;;;;;4969582;28;20037;-69
2022/03/17 08:19:14;;;;;;;18.67;6.20;;;;;;;;;;4969160;28;20038;-71
2022/03/17 08:21:40;;;;;;;15.15;5.57;;;;;;;;;;4969763;28;20046;-71
2022/03/17 08:24:09;;;;;;;17.33;5.78;;;;;;;;;;4971677;28;20392;-69
2022/03/17 08:26:37;;;;;;;11.10;6.82;;;;;;;;;;4974607;28;20031;-69
2022/03/17 08:29:04;;;;;;;22.30;6.60;;;;;;;;;;4981249;28;20575;-70
2022/03/17 08:31:31;;;;;;;12.35;6.35;;;;;;;;;;4982265;28;20619;-68
2022/03/17 08:33:56;;;;;;;15.85;7.78;;;11.60;99.90;;;;;;4973006;28;20026;-68
2022/03/17 08:36:23;;;;;;;16.45;6.55;;;;;;;;;;4985125;28;20053;-68
2022/03/17 08:38:50;;;;;;;25.83;7.30;;;;;;;;;;4973098;28;20871;-66
2022/03/17 08:41:16;;;;;;;17.80;6.90;;;;;;;;;;4974399;28;20054;-67
2022/03/17 08:43:41;;;;;;;14.95;5.60;;;;;;;;;;4986354;28;20069;-68
2022/03/17 08:51:37;;;;;;;19.15;7.85;;;;;;;;;;4977807;28;20057;-65
2022/03/17 08:54:03;;;;;;;15.50;7.15;;;;;;;;;;4979861;28;20399;-65
2022/03/17 08:56:28;;;;;;;22.10;7.38;;;12.00;99.90;;;;;;4987715;28;20087;-65
2022/03/17 08:58:55;;;;;;;11.93;4.85;;;;;;;;;;4988931;28;20486;-66
2022/03/17 09:01:21;;;;;;;11.75;6.18;;;;;;;;;;4982380;28;20034;-69
2022/03/17 09:03:47;;;;;;;18.25;6.55;;;;;;;;;;4972502;28;20034;-68
2022/03/17 09:06:13;;;;;;;14.43;6.05;;;;;;;;;;4981146;28;20031;-68
2022/03/17 09:08:42;;;;;;;9.10;5.75;;;;;;;;;;4973772;28;20058;-65
2022/03/17 09:11:13;;;;;;;13.32;6.10;;;;;;;;;;4987597;28;20030;-64
2022/03/17 09:13:39;;;;;;;14.00;7.35;;;;;;;;;;4988277;28;20084;-65
2022/03/17 09:16:06;;;;;;;13.50;4.93;;;;;;;;;;4981129;28;20034;-70
2022/03/17 09:18:32;;;;;;;15.05;6.97;;;;;;;;;;4972890;28;20034;-67
2022/03/17 09:20:59;;;;;;;19.35;6.15;;;;;;;;;;4979306;28;20034;-69
2022/03/17 09:23:26;;;;;;;15.95;7.13;;;;;;;;;;4985588;28;20052;-68
2022/03/17 09:25:53;;;;;;;14.32;6.45;;;;;;;;;;4987735;28;20049;-67
2022/03/17 09:28:19;;;;;;;16.63;5.13;;;;;;;;;;4983094;28;20035;-67
2022/03/17 09:30:45;;;;;;;10.45;4.97;;;;;;;;;;4981078;28;20289;-66
2022/03/17 09:33:11;;;;;;;14.20;5.95;;;;;;;;;;4970632;28;20045;-67
2022/03/17 09:35:37;;;;;;;7.75;4.88;;;;;;;;;;4985819;28;20410;-66
2022/03/17 09:38:05;;;;;;;12.98;7.30;;;12.30;99.90;;;;;;4985795;28;20038;-67
2022/03/17 09:40:31;;;;;;;13.93;5.65;;;;;;;;;;4980690;28;20031;-65
2022/03/17 09:43:19;;;;;;;9.38;5.45;;;;;;;;;;4977868;28;20023;-67
2022/03/17 09:45:50;;;;;;;12.55;6.22;;;;;;;;;;4972649;28;20177;-66
2022/03/17 09:48:17;;;;;;;12.48;6.03;;;;;;;;;;4979313;28;20039;-69
2022/03/17 09:50:44;;;;;;;10.15;5.55;;;;;;;;;;4970204;28;20055;-69
2022/03/17 09:53:10;;;;;;;15.27;6.28;;;;;;;;;;4971641;28;20038;-69
2022/03/17 09:55:36;;;;;;;17.67;7.07;;;;;;;;;;4972065;28;20117;-70
2022/03/17 09:58:03;;;;;;;20.55;5.22;;;;;;;;;;4985004;28;20037;-69
2022/03/17 10:00:48;;;;;;;19.02;5.85;;;;;;;;;;4977768;28;20381;-69
2022/03/17 10:03:19;;;;;;;14.55;5.32;;;12.90;99.40;;;;;;4971178;28;20484;-68
2022/03/17 10:05:46;;;;;;;13.70;4.35;;;;;;;;;;4981970;28;20038;-70
2022/03/17 10:08:13;;;;;;;15.63;5.68;;;;;;;;;;4975288;28;20027;-65
2022/03/17 10:10:39;;;;;;;18.52;6.20;;;;;;;;;;4980460;28;20088;-65
2022/03/17 10:13:13;;;;;;;13.57;6.10;;;13.10;99.20;;;;;;4975087;28;20038;-65
2022/03/17 10:15:39;;;;;;;16.13;4.68;;;;;;;;;;4976595;28;20049;-65
2022/03/17 10:18:19;;;;;;;13.95;4.78;;;;;;;;;;4971303;28;20566;-65
2022/03/17 10:20:45;;;;;;;13.18;6.28;;;;;;;;;;4971415;28;20209;-65
2022/03/17 10:23:11;;;;;;;18.23;6.82;;;;;;;;;;4971647;28;20125;-64
2022/03/17 10:25:38;;;;;;;17.27;5.55;;;;;;;;;;4980138;28;20041;-66
2022/03/17 10:28:04;;;;;;;12.25;5.60;;;;;;;;;;4970774;28;20665;-66
2022/03/17 10:30:33;;;;;;;8.95;3.53;;;;;;;;;;4970620;28;20058;-65
2022/03/17 10:33:04;;;;;;;17.90;6.07;;;;;;;;;;4977612;28;20026;-65
2022/03/17 10:35:35;;;;;;;6.32;4.53;;;;;;;;;;4973068;28;20027;-64
2022/03/17 10:38:09;;;;;;;22.75;5.38;;;;;;;;;;4971114;28;20027;-65
2022/03/17 10:40:35;;;;;;;13.18;4.70;;;;;;;;;;4980397;28;20034;-70
2022/03/17 10:43:17;;;;;;;10.90;5.68;;;;;;;;;;4977086;28;20050;-65
2022/03/17 10:45:43;;;;;;;11.40;4.70;;;;;;;;;;4973376;28;20061;-69
2022/03/17 10:48:10;;;;;;;12.40;5.10;;;;;;;;;;4969933;28;20834;-65
2022/03/17 10:50:43;;;;;;;21.42;7.05;;;;;;;;;;4970253;28;20074;-65
2022/03/17 10:53:10;;;;;;;10.75;4.47;;;;;;;;;;4979156;28;20030;-66
2022/03/17 10:55:37;;;;;;;21.67;6.77;;;;;;;;;;4971094;28;20054;-65
2022/03/17 10:58:13;;;;;;;15.63;4.72;;;;;;;;;;4970761;28;20786;-66
2022/03/17 11:00:47;;;;;;;15.93;5.20;;;13.30;97.50;;;;;;4971729;28;20042;-68
2022/03/17 11:03:14;;;;;;;12.43;5.80;;;;;;;;;;4970288;28;20125;-70
2022/03/17 11:05:40;;;;;;;13.30;6.13;;;;;;;;;;4971081;28;20031;-70
2022/03/17 11:08:09;;;;;;;7.18;4.70;;;;;;;;;;4968839;28;20066;-65
2022/03/17 11:10:36;;;;;;;19.30;5.05;;;;;;;;;;4969587;28;20043;-69
2022/03/17 11:13:08;;;;;;;18.15;5.70;;;;;;;;;;4969938;28;20086;-69
2022/03/17 11:15:36;;;;;;;23.85;8.55;;;;;;;;;;4971070;28;20109;-70
2022/03/17 11:18:16;;;;;;;10.80;5.72;;;;;;;;;;4969649;28;20039;-69
2022/03/17 11:20:42;;;;;;;12.30;5.13;;;;;;;;;;4970006;28;20038;-69
2022/03/17 11:23:19;;;;;;;20.30;5.45;;;;;;;;;;4970685;28;20026;-69
2022/03/17 11:25:55;;;;;;;12.75;5.28;;;;;;;;;;4983345;28;20093;-69
2022/03/17 11:28:39;;;;;;;8.93;4.72;;;;;;;;;;4978804;28;20610;-69
2022/03/17 11:31:07;;;;;;;26.63;4.97;;;;;;;;;;4973408;28;20038;-69
2022/03/17 11:33:35;;;;;;;10.25;3.75;;;;;;;;;;4976033;28;20027;-69
2022/03/17 11:36:03;;;;;;;7.03;3.65;;;;;;;;;;4979685;28;20018;-68
2022/03/17 11:38:38;;;;;;;10.45;4.10;;;;;;;;;;4971402;28;20041;-69
2022/03/17 11:41:12;;;;;;;15.73;4.53;;;;;;;;;;4976033;28;20507;-68
2022/03/17 11:43:39;;;;;;;13.60;4.53;;;;;;;;;;4974323;28;20081;-67
2022/03/17 11:46:12;;;;;;;12.25;3.70;;;;;;;;;;4972039;28;20050;-68
2022/03/17 11:48:38;;;;;;;19.30;4.90;;;;;;;;;;4975001;28;20051;-69
2022/03/17 11:51:06;;;;;;;6.75;2.88;;;13.30;97.40;;;;;;4968761;28;20075;-69
2022/03/17 11:53:37;;;;;;;17.00;3.85;;;;;;;;;;4978719;28;20037;-65
2022/03/17 11:56:04;;;;;;;5.60;3.33;;;;;;;;;;4980629;28;20138;-65
2022/03/17 11:58:43;;;;;;;11.15;3.67;;;;;;;;;;4974124;28;20077;-70
2022/03/17 12:01:13;;;;;;;24.58;4.45;;;;;;;;;;4976720;28;20537;-69
2022/03/17 12:03:43;;;;;;;21.48;4.40;;;;;;;;;;4974918;28;20110;-68
2022/03/17 12:06:19;;;;;;;20.25;3.92;;;;;;;;;;4977213;28;20046;-69
2022/03/17 12:08:51;;;;;;;16.42;4.15;;;;;;;;;;4969986;28;20484;-68
2022/03/17 12:11:19;;;;;;;12.32;3.90;;;;;;;;;;4969733;28;20411;-69
2022/03/17 12:14:03;;;;;;;;;;;13.00;97.80;;;;;;4970117;28;20110;-63
2022/03/17 12:16:40;;;;;;;16.63;3.97;;;;;;;;;;4969855;28;20000;-64
2022/03/17 12:19:06;;;;;;;12.05;5.32;;;;;;;;;;4969434;28;20101;-65
2022/03/17 12:21:50;;;;;;;15.30;4.13;;;;;;;;;;4969528;28;20093;-64
2022/03/17 12:24:34;;;;;;;7.53;3.97;;;;;;;;;;4977640;28;20101;-64
2022/03/17 12:27:09;;;;;;;13.70;4.57;;;;;;;;;;4979198;28;20026;-63
2022/03/17 12:29:36;;;;;;;26.35;6.20;;;;;;;;;;4976277;28;20026;-64
2022/03/17 12:32:21;;;;;;;16.25;4.78;;;;;;;;;;4979018;28;20027;-63
2022/03/17 12:34:49;;;;;;;13.23;5.63;;;;;;;;;;4985753;28;20029;-62
2022/03/17 12:37:15;;;;;;;18.20;5.47;;;;;;;;;;4984725;28;20030;-63
2022/03/17 12:39:41;;;;;;;15.70;5.30;;;;;;;;;;4974286;28;20059;-64
2022/03/17 12:42:13;;;;;;;10.88;4.70;;;;;;;;;;4972764;28;20038;-64
2022/03/17 12:44:50;;;;;;;12.88;5.65;;;12.40;99.00;;;;;;4970833;28;20043;-63
2022/03/17 12:47:18;;;;;;;23.58;5.35;;;12.50;98.70;;;;;;4979288;28;20080;-67
2022/03/17 12:49:43;;;;;;;10.40;6.50;;;;;;;;;;4968784;28;20058;-66
2022/03/17 12:52:24;;;;;;;15.98;5.60;;;;;;;;;;4967895;28;20089;-68
2022/03/17 12:54:51;;;;;;;15.38;4.35;;;;;;;;;;4969992;28;20031;-66
2022/03/17 12:57:18;;;;;;;13.50;5.30;;;12.50;99.20;;;;;;4969682;28;20030;-65
2022/03/17 12:59:44;;;;;;;16.75;5.93;;;;;;;;;;4979087;28;20729;-67
2022/03/17 13:02:14;;;;;;;20.75;4.32;;;;;;;;;;4969377;28;20037;-66
2022/03/17 13:04:40;;;;;;;10.90;4.47;;;;;;;;;;4968844;28;20053;-66
2022/03/17 13:07:10;;;;;;;16.95;4.18;;;;;;;;;;4982473;28;20026;-65
2022/03/17 13:09:39;;;;;;;9.43;3.58;;;;;;;;;;4973774;28;20038;-71
2022/03/17 13:14:55;;;;;;;13.30;4.95;;;;;;;;;;4981880;28;20170;-71
2022/03/17 13:17:36;;;;;;;7.00;4.17;;;;;;;;;;4973045;28;20519;-70
2022/03/17 13:20:03;;;;;;;13.18;3.45;;;;;;;;;;4981954;28;20061;-69
2022/03/17 13:22:32;;;;;;;8.60;3.30;;;;;;;;;;4987540;28;20029;-70
2022/03/17 13:25:01;;;;;;;6.22;2.92;;;;;;;;;;4986086;28;20550;-70
2022/03/17 13:27:27;;;;;;;5.43;2.97;;;;;;;;;;4987190;28;20034;-70
2022/03/17 13:29:56;;;;;;;6.78;3.25;;;;;;;;;;4983645;28;20037;-66
2022/03/17 13:32:24;;;;;;;13.40;4.00;;;;;;;;;;4975270;28;20049;-67
2022/03/17 13:35:00;;;;;;;5.22;2.75;;;;;;;;;;4981982;28;20181;-67
2022/03/17 13:37:33;;;;;;;9.55;4.30;;;;;;;;;;4971873;28;20055;-66
2022/03/17 13:40:16;;;;;;;10.63;4.63;;;;;;;;;;4981389;28;20545;-67
2022/03/17 13:43:01;;;;;;;10.18;4.03;;;;;;;;;;4977910;28;20037;-66
2022/03/17 13:45:40;;;;;;;6.05;3.67;;;;;;;;;;4971562;28;20038;-66
2022/03/17 13:48:10;;;;;;;9.00;3.78;;;;;;;;;;4978840;28;20027;-66
2022/03/17 13:50:40;;;;;;;12.63;3.38;;;;;;;;;;4973912;28;20050;-68
2022/03/17 13:53:07;;;;;;;6.75;4.40;;;;;;;;;;4986441;28;20065;-67
2022/03/17 13:55:51;;;;;;;6.10;3.13;;;11.90;99.90;;;;;;4977974;28;20057;-69
2022/03/17 13:58:21;;;;;;;6.95;3.00;;;;;;;;;;4981467;28;20023;-67
2022/03/17 14:00:52;;;;;;;6.15;3.97;;;;;;;;;;4971085;28;20129;-68
2022/03/17 14:03:18;;;;;;;15.48;3.00;;;;;;;;;;4979751;28;20030;-67
2022/03/17 14:06:03;;;;;;;7.18;4.20;;;11.80;99.90;;;;;;4980727;28;20499;-71
2022/03/17 14:08:30;;;;;;;5.68;3.90;;;;;;;;;;4974120;28;20060;-72
2022/03/17 14:10:56;;;;;;;9.13;3.95;;;;;;;;;;4977505;28;20125;-71
2022/03/17 14:13:23;;;;;;;13.10;5.10;;;;;;;;;;4982340;28;20086;-71
2022/03/17 14:15:50;;;;;;;7.65;4.03;;;;;;;;;;4972844;28;20157;-69
2022/03/17 14:18:16;;;;;;;8.02;4.53;;;;;;;;;;4979248;28;20038;-68
2022/03/17 14:20:42;;;;;;;8.95;3.20;;;11.80;99.90;;;;;;4983087;28;20038;-67
2022/03/17 14:25:52;;;;;;;5.50;2.97;;;;;;;;;;4979410;28;20057;-65
2022/03/17 14:28:19;;;;;;;9.05;4.22;;;;;;;;;;4971952;28;20030;-67
2022/03/17 14:30:45;;;;;;;14.60;3.45;;;;;;;;;;4972317;28;20037;-67
2022/03/17 14:33:11;;;;;;;10.05;3.72;;;;;;;;;;4979385;28;20035;-64
2022/03/17 14:35:38;;;;;;;11.95;5.13;;;;;;;;;;4980821;28;20042;-66
2022/03/17 14:38:04;;;;;;;6.00;3.08;;;;;;;;;;4970998;28;20035;-66
2022/03/17 14:40:30;;;;;;;8.63;4.53;;;;;;;;;;4971851;28;20030;-66
2022/03/17 14:42:57;;;;;;;8.43;4.25;;;;;;;;;;4979858;28;20030;-69
2022/03/17 14:45:24;;;;;;;5.63;3.60;;;;;;;;;;4970914;28;20046;-68